createdAt,value
2022-10-27T00:01:06.305Z,6.04
2022-10-27T00:03:52.262Z,6.14
2022-10-27T00:06:38.089Z,5.74
2022-10-27T00:09:24.004Z,5.86
2022-10-27T00:12:09.953Z,6.41
2022-10-27T00:14:55.885Z,6.47
2022-10-27T00:17:41.799Z,6.52
2022-10-27T00:20:27.752Z,6.05
2022-10-27T00:23:13.522Z,6.39
2022-10-27T00:25:59.353Z,5.41
2022-10-27T00:28:45.186Z,5.51
2022-10-27T00:31:31.185Z,6.94
2022-10-27T00:34:17.036Z,5.77
2022-10-27T00:37:02.762Z,5.01
2022-10-27T00:39:48.623Z,5.91
2022-10-27T00:42:34.659Z,5.58
2022-10-27T00:45:20.446Z,5.10
2022-10-27T00:48:06.396Z,4.77
2022-10-27T00:50:52.253Z,6.72
2022-10-27T00:53:38.104Z,7.28
2022-10-27T00:56:23.922Z,7.19
2022-10-27T00:59:09.734Z,7.56
2022-10-27T01:01:55.668Z,7.33
2022-10-27T01:04:41.854Z,5.99
2022-10-27T01:07:27.596Z,4.77
2022-10-27T01:10:13.634Z,4.86
2022-10-27T01:12:59.453Z,5.83
2022-10-27T01:15:45.347Z,5.27
2022-10-27T01:18:31.340Z,4.89
2022-10-27T01:21:17.169Z,4.63
2022-10-27T01:24:02.913Z,4.59
2022-10-27T01:26:48.835Z,4.60
2022-10-27T01:29:34.731Z,3.97
2022-10-27T01:32:20.820Z,4.01
2022-10-27T01:35:06.604Z,4.10
2022-10-27T01:37:52.472Z,3.88
2022-10-27T01:40:38.390Z,3.87
2022-10-27T01:43:24.225Z,3.89
2022-10-27T01:46:09.961Z,3.78
2022-10-27T01:48:55.692Z,3.47
2022-10-27T01:51:41.465Z,4.05
2022-10-27T01:54:29.388Z,4.26
2022-10-27T01:57:15.075Z,3.69
2022-10-27T02:00:01.105Z,3.66
2022-10-27T02:02:46.942Z,3.60
2022-10-27T02:05:32.672Z,3.79
2022-10-27T02:08:18.614Z,3.42
2022-10-27T02:11:04.422Z,3.37
2022-10-27T02:13:50.387Z,3.62
2022-10-27T02:16:36.389Z,3.77
2022-10-27T02:19:22.278Z,3.51
2022-10-27T02:22:08.221Z,2.89
2022-10-27T02:24:54.073Z,3.54
2022-10-27T02:27:39.894Z,3.66
2022-10-27T02:30:25.720Z,4.09
2022-10-27T02:33:11.349Z,4.28
2022-10-27T02:35:57.189Z,4.32
2022-10-27T02:38:43.209Z,4.10
2022-10-27T02:41:29.208Z,4.35
2022-10-27T02:44:15.103Z,4.40
2022-10-27T02:47:04.249Z,4.29
2022-10-27T02:49:51.977Z,4.12
2022-10-27T02:52:37.778Z,3.50
2022-10-27T02:55:23.720Z,4.19
2022-10-27T02:58:09.569Z,4.68
2022-10-27T03:00:55.773Z,4.86
2022-10-27T03:03:41.775Z,4.50
2022-10-27T03:06:27.578Z,4.92
2022-10-27T03:09:13.458Z,4.95
2022-10-27T03:11:59.433Z,3.48
2022-10-27T03:14:45.292Z,3.85
2022-10-27T03:17:31.310Z,4.32
2022-10-27T03:20:17.050Z,5.01
2022-10-27T03:23:02.881Z,5.60
2022-10-27T03:25:48.907Z,5.25
2022-10-27T03:28:35.164Z,4.84
2022-10-27T03:31:20.960Z,5.14
2022-10-27T03:34:06.753Z,5.38
2022-10-27T03:36:52.745Z,5.05
2022-10-27T03:39:38.570Z,4.74
2022-10-27T03:42:24.351Z,4.57
2022-10-27T03:45:10.316Z,4.81
2022-10-27T03:47:56.219Z,5.09
2022-10-27T03:50:41.981Z,5.81
2022-10-27T03:53:27.944Z,4.81
2022-10-27T03:56:13.725Z,4.98
2022-10-27T03:58:59.482Z,5.26
2022-10-27T04:01:47.496Z,4.93
2022-10-27T04:04:33.661Z,5.08
2022-10-27T04:07:19.609Z,5.24
2022-10-27T04:10:05.403Z,5.58
2022-10-27T04:13:01.412Z,5.57
2022-10-27T04:16:03.803Z,5.27
2022-10-27T04:18:49.840Z,5.17
2022-10-27T04:21:35.645Z,4.58
2022-10-27T04:24:21.534Z,4.43
2022-10-27T04:27:07.391Z,4.46
2022-10-27T04:29:53.329Z,4.84
2022-10-27T04:32:39.001Z,5.21
2022-10-27T04:35:24.881Z,5.32
2022-10-27T04:38:10.668Z,5.43
2022-10-27T04:40:56.671Z,5.46
2022-10-27T04:43:42.512Z,4.50
2022-10-27T04:46:28.436Z,4.78
2022-10-27T04:49:14.271Z,4.90
2022-10-27T04:52:00.134Z,5.48
2022-10-27T04:54:46.292Z,5.37
2022-10-27T04:57:32.165Z,5.27
2022-10-27T05:00:18.022Z,4.97
2022-10-27T05:03:03.949Z,5.10
2022-10-27T05:05:49.724Z,4.89
2022-10-27T05:08:35.545Z,5.18
2022-10-27T05:11:21.377Z,4.81
2022-10-27T05:14:07.218Z,5.52
2022-10-27T05:16:53.086Z,5.94
2022-10-27T05:19:39.037Z,6.04
2022-10-27T05:22:24.785Z,5.21
2022-10-27T05:25:10.573Z,5.01
2022-10-27T05:27:56.287Z,5.84
2022-10-27T05:30:42.164Z,6.12
2022-10-27T05:33:28.039Z,5.53
2022-10-27T05:36:13.835Z,5.38
2022-10-27T05:38:59.617Z,5.20
2022-10-27T05:41:45.415Z,5.60
2022-10-27T05:44:31.149Z,5.22
2022-10-27T05:47:17.166Z,6.45
2022-10-27T05:50:02.963Z,6.85
2022-10-27T05:52:49.035Z,7.35
2022-10-27T05:55:35.353Z,5.80
2022-10-27T05:58:21.246Z,6.18
2022-10-27T06:01:07.206Z,5.60
2022-10-27T06:03:53.177Z,6.08
2022-10-27T06:06:39.085Z,5.92
2022-10-27T06:09:24.891Z,5.83
2022-10-27T06:12:10.568Z,4.33
2022-10-27T06:14:56.571Z,5.15
2022-10-27T06:17:42.429Z,4.03
2022-10-27T06:20:28.337Z,3.31
2022-10-27T06:23:14.604Z,3.88
2022-10-27T06:26:01.505Z,4.15
2022-10-27T06:28:47.560Z,3.03
2022-10-27T06:31:33.398Z,3.32
2022-10-27T06:34:19.352Z,3.12
2022-10-27T06:37:05.248Z,3.43
2022-10-27T06:39:51.201Z,3.31
2022-10-27T06:42:48.730Z,3.46
2022-10-27T06:45:41.684Z,3.83
2022-10-27T06:48:27.654Z,3.38
2022-10-27T06:51:13.366Z,3.34
2022-10-27T06:53:59.243Z,3.84
2022-10-27T06:56:45.035Z,3.57
2022-10-27T06:59:30.989Z,5.85
2022-10-27T07:02:17.048Z,3.20
2022-10-27T07:05:03.088Z,6.34
2022-10-27T07:07:49.252Z,3.26
2022-10-27T07:10:35.589Z,4.14
2022-10-27T07:13:21.315Z,4.72
2022-10-27T07:16:07.172Z,5.16
2022-10-27T07:18:53.033Z,4.98
2022-10-27T07:21:38.752Z,4.75
2022-10-27T07:24:24.777Z,6.06
2022-10-27T07:27:11.192Z,8.18
2022-10-27T07:29:57.414Z,8.20
2022-10-27T07:32:43.396Z,7.64
2022-10-27T07:35:29.298Z,6.67
2022-10-27T07:38:15.239Z,7.36
2022-10-27T07:41:01.237Z,8.05
2022-10-27T07:43:47.033Z,7.65
2022-10-27T07:46:32.967Z,4.68
2022-10-27T07:49:18.785Z,3.45
2022-10-27T07:52:04.697Z,2.87
2022-10-27T07:54:50.627Z,3.16
2022-10-27T07:57:36.540Z,3.21
2022-10-27T08:00:22.495Z,2.73
2022-10-27T08:03:08.211Z,2.87
2022-10-27T08:05:54.206Z,2.95
2022-10-27T08:08:40.151Z,3.06
2022-10-27T08:11:25.961Z,2.91
2022-10-27T08:14:11.913Z,3.10
2022-10-27T08:17:01.303Z,2.71
2022-10-27T08:19:50.097Z,2.84
2022-10-27T08:22:35.925Z,2.69
2022-10-27T08:25:21.732Z,3.12
2022-10-27T08:28:07.573Z,9.12
2022-10-27T08:30:53.750Z,13.27
2022-10-27T08:33:39.566Z,11.81
2022-10-27T08:36:25.390Z,8.50
2022-10-27T08:39:11.265Z,11.46
2022-10-27T08:41:57.079Z,11.24
2022-10-27T08:44:42.966Z,12.94
2022-10-27T08:47:28.759Z,13.25
2022-10-27T08:50:14.696Z,14.19
2022-10-27T08:53:03.927Z,14.16
2022-10-27T08:55:51.331Z,15.20
2022-10-27T08:58:37.319Z,15.10
2022-10-27T09:01:23.346Z,15.13
2022-10-27T09:04:09.549Z,14.52
2022-10-27T09:06:55.416Z,14.75
2022-10-27T09:09:41.419Z,14.56
2022-10-27T09:12:27.316Z,14.28
2022-10-27T09:15:13.242Z,13.96
2022-10-27T09:17:59.216Z,14.23
2022-10-27T09:20:45.284Z,14.36
2022-10-27T09:23:31.214Z,14.59
2022-10-27T09:26:17.187Z,14.47
2022-10-27T09:29:02.986Z,14.84
2022-10-27T09:31:48.917Z,14.92
2022-10-27T09:34:34.990Z,12.00
2022-10-27T09:37:20.855Z,12.30
2022-10-27T09:40:06.938Z,10.79
2022-10-27T09:42:53.157Z,11.10
2022-10-27T09:45:39.624Z,9.46
2022-10-27T09:48:25.433Z,8.22
2022-10-27T09:51:11.358Z,12.78
2022-10-27T09:53:57.120Z,14.85
2022-10-27T09:56:43.050Z,14.11
2022-10-27T09:59:28.988Z,14.93
2022-10-27T10:02:14.872Z,13.02
2022-10-27T10:05:00.757Z,11.94
2022-10-27T10:07:46.584Z,10.18
2022-10-27T10:10:32.488Z,10.31
2022-10-27T10:13:18.247Z,11.39
2022-10-27T10:16:04.004Z,11.38
2022-10-27T10:18:49.964Z,12.21
2022-10-27T10:21:35.892Z,12.22
2022-10-27T10:24:23.800Z,12.48
2022-10-27T10:27:09.671Z,12.42
2022-10-27T10:29:55.465Z,12.07
2022-10-27T10:32:41.373Z,12.52
2022-10-27T10:35:27.169Z,12.39
2022-10-27T10:38:13.155Z,12.20
2022-10-27T10:40:59.086Z,12.57
2022-10-27T10:43:45.062Z,13.19
2022-10-27T10:46:30.992Z,13.73
2022-10-27T10:49:16.872Z,9.29
2022-10-27T10:52:02.886Z,11.87
2022-10-27T10:54:48.881Z,13.00
2022-10-27T10:57:34.682Z,10.61
2022-10-27T11:00:20.689Z,11.63
2022-10-27T11:03:06.613Z,11.79
2022-10-27T11:05:52.421Z,9.15
2022-10-27T11:08:42.039Z,11.35
2022-10-27T11:11:28.724Z,11.58
2022-10-27T11:14:14.569Z,9.63
2022-10-27T11:17:00.591Z,8.03
2022-10-27T11:19:46.550Z,5.90
2022-10-27T11:22:32.467Z,5.06
2022-10-27T11:25:18.532Z,5.33
2022-10-27T11:28:04.309Z,4.68
2022-10-27T11:30:50.241Z,5.79
2022-10-27T11:33:36.208Z,7.21
2022-10-27T11:36:24.073Z,6.20
2022-10-27T11:39:10.116Z,6.21
2022-10-27T11:41:56.025Z,4.87
2022-10-27T11:44:42.105Z,4.20
2022-10-27T11:47:28.055Z,4.70
2022-10-27T11:50:13.962Z,4.53
2022-10-27T11:52:59.939Z,4.31
2022-10-27T11:55:45.789Z,4.52
2022-10-27T11:58:31.472Z,5.71
2022-10-27T12:01:17.447Z,6.19
2022-10-27T12:04:03.697Z,6.77
2022-10-27T12:06:49.407Z,8.64
2022-10-27T12:09:35.248Z,8.96
2022-10-27T12:12:21.080Z,8.68
2022-10-27T12:15:06.829Z,7.97
2022-10-27T12:17:53.180Z,6.05
2022-10-27T12:20:39.167Z,5.03
2022-10-27T12:23:25.090Z,4.66
2022-10-27T12:26:11.156Z,4.74
2022-10-27T12:28:57.063Z,4.68
2022-10-27T12:31:43.144Z,5.20
2022-10-27T12:34:28.990Z,4.83
2022-10-27T12:37:16.393Z,4.67
2022-10-27T12:40:04.277Z,3.87
2022-10-27T12:42:50.138Z,4.29
2022-10-27T12:45:35.910Z,4.43
2022-10-27T12:48:21.843Z,4.58
2022-10-27T12:51:07.594Z,4.69
2022-10-27T12:53:53.584Z,5.00
2022-10-27T12:56:39.545Z,5.04
2022-10-27T12:59:25.355Z,4.40
2022-10-27T13:02:11.298Z,5.07
2022-10-27T13:04:57.299Z,4.55
2022-10-27T13:07:43.107Z,4.39
2022-10-27T13:10:31.259Z,4.76
2022-10-27T13:13:18.426Z,4.62
2022-10-27T13:16:04.304Z,4.88
2022-10-27T13:18:50.101Z,5.26
2022-10-27T13:21:35.914Z,4.50
2022-10-27T13:24:21.783Z,4.49
2022-10-27T13:27:07.650Z,4.60
2022-10-27T13:29:53.565Z,4.29
2022-10-27T13:32:39.425Z,4.70
2022-10-27T13:35:25.281Z,4.55
2022-10-27T13:38:11.101Z,4.21
2022-10-27T13:40:57.138Z,4.40
2022-10-27T13:43:42.955Z,4.47
2022-10-27T13:46:28.826Z,4.20
2022-10-27T13:49:14.829Z,4.46
2022-10-27T13:52:06.892Z,4.16
2022-10-27T13:54:52.992Z,4.68
2022-10-27T13:57:38.867Z,5.17
2022-10-27T14:00:24.708Z,4.77
2022-10-27T14:03:10.738Z,4.53
2022-10-27T14:05:56.817Z,4.56
2022-10-27T14:08:42.551Z,4.88
2022-10-27T14:11:28.485Z,4.87
2022-10-27T14:14:14.321Z,4.63
2022-10-27T14:17:00.181Z,4.97
2022-10-27T14:19:46.171Z,4.72
2022-10-27T14:22:32.029Z,4.98
2022-10-27T14:25:17.959Z,4.93
2022-10-27T14:28:03.983Z,4.87
2022-10-27T14:30:49.713Z,4.34
2022-10-27T14:33:35.704Z,4.78
2022-10-27T14:39:12.127Z,4.82
2022-10-27T14:41:58.000Z,4.83
2022-10-27T14:44:43.859Z,4.88
2022-10-27T14:47:29.698Z,5.12
2022-10-27T14:50:17.591Z,5.20
2022-10-27T14:53:03.598Z,5.12
2022-10-27T14:55:49.380Z,4.51
2022-10-27T14:58:35.332Z,4.76
2022-10-27T15:01:27.456Z,4.46
2022-10-27T15:04:16.056Z,4.81
2022-10-27T15:07:01.860Z,4.93
2022-10-27T15:09:51.772Z,4.60
2022-10-27T15:12:39.044Z,4.38
2022-10-27T15:15:24.779Z,4.75
2022-10-27T15:18:10.711Z,4.52
2022-10-27T15:20:56.552Z,4.40
2022-10-27T15:23:42.317Z,4.75
2022-10-27T15:26:28.093Z,4.75
2022-10-27T15:29:14.185Z,4.75
2022-10-27T15:32:00.058Z,4.38
2022-10-27T15:34:46.063Z,4.88
2022-10-27T15:37:31.909Z,4.76
2022-10-27T15:40:18.072Z,4.77
2022-10-27T15:43:04.033Z,4.72
2022-10-27T15:45:49.959Z,4.99
2022-10-27T15:48:35.941Z,4.88
2022-10-27T15:51:21.973Z,4.98
2022-10-27T15:54:07.703Z,4.49
2022-10-27T15:56:53.885Z,4.89
2022-10-27T15:59:39.693Z,4.92
2022-10-27T16:02:25.554Z,4.91
2022-10-27T16:05:11.440Z,4.67
2022-10-27T16:07:57.401Z,4.38
2022-10-27T16:10:43.403Z,4.26
2022-10-27T16:13:29.409Z,4.08
2022-10-27T16:16:15.281Z,4.07
2022-10-27T16:19:01.326Z,4.25
2022-10-27T16:21:47.146Z,4.20
2022-10-27T16:24:33.078Z,4.45
2022-10-27T16:27:18.985Z,4.26
2022-10-27T16:30:04.882Z,4.66
2022-10-27T16:32:51.164Z,4.52
2022-10-27T16:35:37.297Z,4.41
2022-10-27T16:38:23.107Z,4.69
2022-10-27T16:41:09.174Z,4.54
2022-10-27T16:43:55.051Z,4.28
2022-10-27T16:46:40.922Z,4.89
2022-10-27T16:49:26.930Z,4.32
2022-10-27T16:52:12.769Z,4.09
2022-10-27T16:54:58.618Z,4.41
2022-10-27T16:57:47.241Z,4.52
2022-10-27T17:00:35.675Z,4.22
2022-10-27T17:03:21.618Z,4.47
2022-10-27T17:06:07.598Z,4.68
2022-10-27T17:08:53.368Z,4.73
2022-10-27T17:11:39.281Z,4.74
2022-10-27T17:14:25.169Z,5.02
2022-10-27T17:17:11.032Z,4.65
2022-10-27T17:19:56.943Z,4.50
2022-10-27T17:22:42.883Z,4.83
2022-10-27T17:25:31.392Z,4.83
2022-10-27T17:28:17.858Z,4.51
2022-10-27T17:31:03.756Z,4.40
2022-10-27T17:33:49.808Z,4.55
2022-10-27T17:36:35.631Z,3.97
2022-10-27T17:39:21.371Z,3.77
2022-10-27T17:42:07.279Z,3.74
2022-10-27T17:44:53.122Z,3.81
2022-10-27T17:47:39.042Z,4.05
2022-10-27T17:50:24.890Z,3.83
2022-10-27T17:53:10.725Z,3.74
2022-10-27T17:55:56.709Z,4.01
2022-10-27T17:58:42.531Z,4.41
2022-10-27T18:01:28.663Z,3.70
2022-10-27T18:04:14.805Z,3.97
2022-10-27T18:07:00.601Z,3.41
2022-10-27T18:09:46.540Z,5.82
2022-10-27T18:12:32.437Z,5.72
2022-10-27T18:15:35.046Z,5.10
2022-10-27T18:18:22.255Z,4.65
2022-10-27T18:21:08.333Z,4.46
2022-10-27T18:23:54.162Z,4.65
2022-10-27T18:26:40.073Z,4.52
2022-10-27T18:29:26.701Z,4.02
2022-10-27T18:32:12.932Z,3.75
2022-10-27T18:34:59.027Z,4.52
2022-10-27T18:37:44.974Z,5.49
2022-10-27T18:40:30.809Z,5.77
2022-10-27T18:43:16.769Z,4.41
2022-10-27T18:46:02.595Z,4.19
2022-10-27T18:48:48.536Z,4.99
2022-10-27T18:51:34.375Z,5.56
2022-10-27T18:54:20.185Z,5.31
2022-10-27T18:57:05.995Z,4.43
2022-10-27T18:59:51.800Z,4.86
2022-10-27T19:02:37.706Z,4.99
2022-10-27T19:05:24.058Z,5.75
2022-10-27T19:08:09.928Z,4.86
2022-10-27T19:10:57.992Z,6.22
2022-10-27T19:13:46.974Z,5.51
2022-10-27T19:16:32.839Z,5.45
2022-10-27T19:19:18.529Z,5.59
2022-10-27T19:22:04.395Z,5.52
2022-10-27T19:24:50.280Z,5.49
2022-10-27T19:27:36.203Z,4.59
2022-10-27T19:30:22.063Z,5.02
2022-10-27T19:33:07.800Z,5.09
2022-10-27T19:35:53.765Z,5.55
2022-10-27T19:38:39.613Z,5.42
2022-10-27T19:41:25.336Z,5.59
2022-10-27T19:44:11.244Z,5.37
2022-10-27T19:46:57.034Z,4.89
2022-10-27T19:49:42.899Z,4.92
2022-10-27T19:52:28.789Z,4.77
2022-10-27T19:55:14.804Z,5.04
2022-10-27T19:58:00.563Z,4.53
2022-10-27T20:00:46.408Z,3.89
2022-10-27T20:03:32.434Z,3.24
2022-10-27T20:06:18.301Z,3.29
2022-10-27T20:09:04.069Z,2.98
2022-10-27T20:11:49.971Z,3.09
2022-10-27T20:14:35.890Z,2.81
2022-10-27T20:17:21.781Z,2.71
2022-10-27T20:20:07.844Z,2.64
2022-10-27T20:22:53.650Z,2.94
2022-10-27T20:25:39.655Z,2.86
2022-10-27T20:28:25.621Z,2.94
2022-10-27T20:31:11.391Z,2.93
2022-10-27T20:33:57.153Z,2.71
2022-10-27T20:36:43.031Z,2.76
2022-10-27T20:39:28.976Z,2.99
2022-10-27T20:42:14.968Z,2.82
2022-10-27T20:45:00.751Z,2.92
2022-10-27T20:47:46.723Z,2.67
2022-10-27T20:50:32.617Z,2.83
2022-10-27T20:53:18.511Z,2.96
2022-10-27T20:56:04.401Z,2.70
2022-10-27T20:58:50.291Z,2.66
2022-10-27T21:01:36.257Z,3.03
2022-10-27T21:04:22.525Z,3.22
2022-10-27T21:07:08.546Z,3.01
2022-10-27T21:09:54.375Z,3.24
2022-10-27T21:12:40.272Z,3.11
2022-10-27T21:15:26.318Z,3.16
2022-10-27T21:18:12.212Z,3.40
2022-10-27T21:20:58.013Z,3.23
2022-10-27T21:23:43.894Z,3.09
2022-10-27T21:26:29.803Z,3.11
2022-10-27T21:29:15.628Z,2.82
2022-10-27T21:32:01.480Z,2.87
2022-10-27T21:34:47.317Z,3.51
2022-10-27T21:37:33.324Z,3.19
2022-10-27T21:40:21.721Z,3.04
2022-10-27T21:43:07.638Z,2.94
2022-10-27T21:45:53.696Z,2.92
2022-10-27T21:48:39.655Z,2.87
2022-10-27T21:51:25.454Z,3.07
2022-10-27T21:54:11.369Z,3.05
2022-10-27T21:56:57.467Z,3.12
2022-10-27T21:59:43.220Z,2.97
2022-10-27T22:02:29.133Z,3.27
2022-10-27T22:05:14.913Z,3.24
2022-10-27T22:08:00.843Z,3.15
2022-10-27T22:10:46.700Z,2.97
2022-10-27T22:13:32.524Z,3.07
2022-10-27T22:16:18.391Z,3.53
2022-10-27T22:19:04.112Z,3.27
2022-10-27T22:21:49.949Z,3.60
2022-10-27T22:24:35.758Z,2.85
2022-10-27T22:27:21.554Z,3.49
2022-10-27T22:30:07.528Z,3.48
2022-10-27T22:32:53.863Z,3.35
2022-10-27T22:35:39.836Z,3.40
2022-10-27T22:38:25.802Z,3.11
2022-10-27T22:41:13.740Z,3.77
2022-10-27T22:43:59.447Z,3.06
2022-10-27T22:46:45.313Z,3.23
2022-10-27T22:49:31.150Z,3.89
2022-10-27T22:52:17.215Z,3.69
2022-10-27T22:55:03.202Z,3.78
2022-10-27T22:57:49.093Z,3.99
2022-10-27T23:00:36.896Z,3.47
2022-10-27T23:03:22.813Z,3.57
2022-10-27T23:06:08.635Z,3.30
2022-10-27T23:08:54.517Z,3.60
2022-10-27T23:11:40.284Z,3.26
2022-10-27T23:14:26.069Z,3.39
2022-10-27T23:17:12.109Z,3.64
2022-10-27T23:19:57.929Z,4.18
2022-10-27T23:22:43.874Z,4.01
2022-10-27T23:25:31.819Z,4.12
2022-10-27T23:28:20.060Z,3.99
2022-10-27T23:31:05.792Z,3.74
2022-10-27T23:33:51.602Z,3.57
2022-10-27T23:36:37.359Z,3.32
2022-10-27T23:39:23.314Z,3.41
2022-10-27T23:42:11.102Z,3.66
2022-10-27T23:44:56.918Z,4.14
2022-10-27T23:47:42.827Z,4.69
2022-10-27T23:50:28.610Z,4.06
2022-10-27T23:53:14.517Z,3.79
2022-10-27T23:56:00.410Z,4.15
2022-10-27T23:58:46.277Z,4.01
